sensor_id;sensor_type;location;lat;lon;timestamp;P1;durP1;ratioP1;P2;durP2;ratioP2
33254;SDS011;19623;52.482;9.762;2022-08-05T00:01:49;857.10;;;786.38;;
33254;SDS011;19623;52.482;9.762;2022-08-05T00:04:15;880.80;;;807.15;;
33254;SDS011;19623;52.482;9.762;2022-08-05T00:06:42;823.28;;;756.15;;
33254;SDS011;19623;52.482;9.762;2022-08-05T00:09:07;738.33;;;679.22;;
33254;SDS011;19623;52.482;9.762;2022-08-05T00:11:33;885.20;;;805.92;;
33254;SDS011;19623;52.482;9.762;2022-08-05T00:13:58;873.38;;;801.33;;
33254;SDS011;19623;52.482;9.762;2022-08-05T00:16:24;885.22;;;802.35;;
33254;SDS011;19623;52.482;9.762;2022-08-05T00:18:50;888.20;;;807.63;;
33254;SDS011;19623;52.482;9.762;2022-08-05T00:21:16;886.42;;;806.78;;
33254;SDS011;19623;52.482;9.762;2022-08-05T00:23:43;884.53;;;799.75;;
33254;SDS011;19623;52.482;9.762;2022-08-05T00:26:10;874.28;;;798.65;;
33254;SDS011;19623;52.482;9.762;2022-08-05T00:28:36;889.22;;;804.78;;
33254;SDS011;19623;52.482;9.762;2022-08-05T00:31:04;885.13;;;803.95;;
33254;SDS011;19623;52.482;9.762;2022-08-05T00:33:31;880.95;;;799.55;;
33254;SDS011;19623;52.482;9.762;2022-08-05T00:35:58;875.78;;;801.70;;
33254;SDS011;19623;52.482;9.762;2022-08-05T00:38:24;885.53;;;809.75;;
33254;SDS011;19623;52.482;9.762;2022-08-05T00:40:51;877.33;;;802.28;;
33254;SDS011;19623;52.482;9.762;2022-08-05T00:45:47;868.25;;;788.40;;
33254;SDS011;19623;52.482;9.762;2022-08-05T00:48:14;878.45;;;800.35;;
33254;SDS011;19623;52.482;9.762;2022-08-05T00:50:41;871.10;;;796.50;;
33254;SDS011;19623;52.482;9.762;2022-08-05T00:53:08;879.38;;;800.80;;
33254;SDS011;19623;52.482;9.762;2022-08-05T00:55:34;887.63;;;809.13;;
33254;SDS011;19623;52.482;9.762;2022-08-05T00:58:00;879.00;;;801.08;;
33254;SDS011;19623;52.482;9.762;2022-08-05T01:00:26;842.25;;;770.35;;
33254;SDS011;19623;52.482;9.762;2022-08-05T01:02:53;891.58;;;809.42;;
33254;SDS011;19623;52.482;9.762;2022-08-05T01:05:20;888.63;;;801.95;;
33254;SDS011;19623;52.482;9.762;2022-08-05T01:07:46;886.85;;;809.58;;
33254;SDS011;19623;52.482;9.762;2022-08-05T01:10:12;876.33;;;799.95;;
33254;SDS011;19623;52.482;9.762;2022-08-05T01:12:42;870.92;;;795.90;;
33254;SDS011;19623;52.482;9.762;2022-08-05T01:15:11;885.60;;;797.00;;
33254;SDS011;19623;52.482;9.762;2022-08-05T01:17:39;894.05;;;811.30;;
33254;SDS011;19623;52.482;9.762;2022-08-05T01:28:51;861.40;;;771.90;;
33254;SDS011;19623;52.482;9.762;2022-08-05T01:31:32;861.28;;;769.78;;
33254;SDS011;19623;52.482;9.762;2022-08-05T01:34:02;861.47;;;767.53;;
33254;SDS011;19623;52.482;9.762;2022-08-05T01:36:33;872.38;;;780.92;;
33254;SDS011;19623;52.482;9.762;2022-08-05T01:41:30;876.50;;;752.53;;
33254;SDS011;19623;52.482;9.762;2022-08-05T01:43:58;863.58;;;769.20;;
33254;SDS011;19623;52.482;9.762;2022-08-05T01:46:25;863.53;;;772.72;;
33254;SDS011;19623;52.482;9.762;2022-08-05T01:48:53;868.95;;;779.80;;
33254;SDS011;19623;52.482;9.762;2022-08-05T01:51:19;874.40;;;782.03;;
33254;SDS011;19623;52.482;9.762;2022-08-05T01:53:49;887.53;;;796.78;;
33254;SDS011;19623;52.482;9.762;2022-08-05T01:56:16;875.08;;;782.80;;
33254;SDS011;19623;52.482;9.762;2022-08-05T01:58:44;876.63;;;783.05;;
33254;SDS011;19623;52.482;9.762;2022-08-05T02:01:12;876.92;;;782.63;;
33254;SDS011;19623;52.482;9.762;2022-08-05T02:03:42;880.42;;;788.42;;
33254;SDS011;19623;52.482;9.762;2022-08-05T02:06:10;868.63;;;773.17;;
33254;SDS011;19623;52.482;9.762;2022-08-05T02:08:36;872.25;;;777.70;;
33254;SDS011;19623;52.482;9.762;2022-08-05T02:11:06;872.72;;;779.92;;
33254;SDS011;19623;52.482;9.762;2022-08-05T02:13:36;875.60;;;782.35;;
33254;SDS011;19623;52.482;9.762;2022-08-05T02:16:24;865.90;;;772.38;;
33254;SDS011;19623;52.482;9.762;2022-08-05T02:19:12;875.63;;;784.22;;
33254;SDS011;19623;52.482;9.762;2022-08-05T02:24:50;872.13;;;779.70;;
33254;SDS011;19623;52.482;9.762;2022-08-05T02:27:20;884.75;;;791.58;;
33254;SDS011;19623;52.482;9.762;2022-08-05T02:29:47;890.13;;;799.40;;
33254;SDS011;19623;52.482;9.762;2022-08-05T02:32:14;891.45;;;797.65;;
33254;SDS011;19623;52.482;9.762;2022-08-05T02:37:09;871.42;;;767.55;;
33254;SDS011;19623;52.482;9.762;2022-08-05T02:39:38;882.60;;;781.80;;
33254;SDS011;19623;52.482;9.762;2022-08-05T02:42:04;875.45;;;777.90;;
33254;SDS011;19623;52.482;9.762;2022-08-05T02:44:33;876.10;;;779.83;;
33254;SDS011;19623;52.482;9.762;2022-08-05T02:47:00;879.05;;;783.45;;
33254;SDS011;19623;52.482;9.762;2022-08-05T02:49:30;880.28;;;785.72;;
33254;SDS011;19623;52.482;9.762;2022-08-05T02:51:58;885.67;;;790.28;;
33254;SDS011;19623;52.482;9.762;2022-08-05T02:54:24;882.15;;;785.95;;
33254;SDS011;19623;52.482;9.762;2022-08-05T02:56:52;882.40;;;786.30;;
33254;SDS011;19623;52.482;9.762;2022-08-05T02:59:18;874.25;;;779.92;;
33254;SDS011;19623;52.482;9.762;2022-08-05T03:01:45;880.53;;;786.95;;
33254;SDS011;19623;52.482;9.762;2022-08-05T03:04:15;882.10;;;775.88;;
33254;SDS011;19623;52.482;9.762;2022-08-05T03:06:42;874.00;;;776.20;;
33254;SDS011;19623;52.482;9.762;2022-08-05T03:09:11;876.40;;;770.08;;
33254;SDS011;19623;52.482;9.762;2022-08-05T03:11:39;872.67;;;770.20;;
33254;SDS011;19623;52.482;9.762;2022-08-05T03:14:06;875.60;;;780.33;;
33254;SDS011;19623;52.482;9.762;2022-08-05T03:16:32;874.53;;;781.83;;
33254;SDS011;19623;52.482;9.762;2022-08-05T03:18:59;880.13;;;786.05;;
33254;SDS011;19623;52.482;9.762;2022-08-05T03:21:25;866.85;;;773.42;;
33254;SDS011;19623;52.482;9.762;2022-08-05T03:23:51;868.78;;;777.45;;
33254;SDS011;19623;52.482;9.762;2022-08-05T03:26:17;870.78;;;779.13;;
33254;SDS011;19623;52.482;9.762;2022-08-05T03:28:43;858.75;;;770.75;;
33254;SDS011;19623;52.482;9.762;2022-08-05T03:31:08;858.17;;;768.60;;
33254;SDS011;19623;52.482;9.762;2022-08-05T03:33:35;859.40;;;771.72;;
33254;SDS011;19623;52.482;9.762;2022-08-05T03:36:01;860.22;;;771.47;;
33254;SDS011;19623;52.482;9.762;2022-08-05T03:38:27;845.25;;;761.03;;
33254;SDS011;19623;52.482;9.762;2022-08-05T03:40:52;866.15;;;779.05;;
33254;SDS011;19623;52.482;9.762;2022-08-05T03:43:18;853.47;;;758.95;;
33254;SDS011;19623;52.482;9.762;2022-08-05T03:45:45;858.38;;;773.47;;
33254;SDS011;19623;52.482;9.762;2022-08-05T03:48:11;864.38;;;778.92;;
33254;SDS011;19623;52.482;9.762;2022-08-05T03:50:41;846.97;;;768.20;;
33254;SDS011;19623;52.482;9.762;2022-08-05T03:53:27;862.70;;;776.08;;
33254;SDS011;19623;52.482;9.762;2022-08-05T03:56:11;859.85;;;773.53;;
33254;SDS011;19623;52.482;9.762;2022-08-05T03:58:42;861.55;;;781.97;;
33254;SDS011;19623;52.482;9.762;2022-08-05T04:01:10;861.47;;;776.03;;
33254;SDS011;19623;52.482;9.762;2022-08-05T04:03:38;864.65;;;787.00;;
33254;SDS011;19623;52.482;9.762;2022-08-05T04:06:08;867.20;;;790.63;;
33254;SDS011;19623;52.482;9.762;2022-08-05T04:08:34;848.88;;;775.35;;
33254;SDS011;19623;52.482;9.762;2022-08-05T04:11:01;855.38;;;780.63;;
33254;SDS011;19623;52.482;9.762;2022-08-05T04:13:28;808.25;;;740.67;;
33254;SDS011;19623;52.482;9.762;2022-08-05T04:15:55;866.85;;;791.80;;
33254;SDS011;19623;52.482;9.762;2022-08-05T04:18:23;848.35;;;775.42;;
33254;SDS011;19623;52.482;9.762;2022-08-05T04:20:56;825.45;;;755.45;;
33254;SDS011;19623;52.482;9.762;2022-08-05T04:23:22;827.45;;;757.08;;
33254;SDS011;19623;52.482;9.762;2022-08-05T04:25:50;846.33;;;759.13;;
33254;SDS011;19623;52.482;9.762;2022-08-05T04:28:16;846.83;;;760.38;;
33254;SDS011;19623;52.482;9.762;2022-08-05T04:30:43;848.15;;;768.25;;
33254;SDS011;19623;52.482;9.762;2022-08-05T04:33:09;851.78;;;765.15;;
33254;SDS011;19623;52.482;9.762;2022-08-05T04:35:35;852.88;;;771.63;;
33254;SDS011;19623;52.482;9.762;2022-08-05T04:38:00;848.88;;;763.63;;
33254;SDS011;19623;52.482;9.762;2022-08-05T04:40:26;853.92;;;768.17;;
33254;SDS011;19623;52.482;9.762;2022-08-05T04:42:52;865.10;;;783.50;;
33254;SDS011;19623;52.482;9.762;2022-08-05T04:45:17;852.83;;;771.95;;
33254;SDS011;19623;52.482;9.762;2022-08-05T04:47:43;858.35;;;780.25;;
33254;SDS011;19623;52.482;9.762;2022-08-05T04:50:08;861.88;;;784.03;;
33254;SDS011;19623;52.482;9.762;2022-08-05T04:52:34;853.03;;;780.13;;
33254;SDS011;19623;52.482;9.762;2022-08-05T04:55:00;860.33;;;781.10;;
33254;SDS011;19623;52.482;9.762;2022-08-05T04:57:26;861.00;;;781.70;;
33254;SDS011;19623;52.482;9.762;2022-08-05T04:59:51;863.72;;;786.83;;
33254;SDS011;19623;52.482;9.762;2022-08-05T05:02:17;851.67;;;778.50;;
33254;SDS011;19623;52.482;9.762;2022-08-05T05:04:42;864.47;;;783.92;;
33254;SDS011;19623;52.482;9.762;2022-08-05T05:07:08;859.80;;;779.80;;
33254;SDS011;19623;52.482;9.762;2022-08-05T05:09:34;862.13;;;782.17;;
33254;SDS011;19623;52.482;9.762;2022-08-05T05:11:59;854.30;;;774.47;;
33254;SDS011;19623;52.482;9.762;2022-08-05T05:14:25;851.88;;;777.17;;
33254;SDS011;19623;52.482;9.762;2022-08-05T05:16:51;843.33;;;769.70;;
33254;SDS011;19623;52.482;9.762;2022-08-05T05:19:16;837.65;;;767.55;;
33254;SDS011;19623;52.482;9.762;2022-08-05T05:21:42;821.17;;;752.38;;
33254;SDS011;19623;52.482;9.762;2022-08-05T05:24:08;834.70;;;763.88;;
33254;SDS011;19623;52.482;9.762;2022-08-05T05:26:34;838.25;;;767.00;;
33254;SDS011;19623;52.482;9.762;2022-08-05T05:28:59;858.60;;;785.75;;
33254;SDS011;19623;52.482;9.762;2022-08-05T05:31:25;853.50;;;780.88;;
33254;SDS011;19623;52.482;9.762;2022-08-05T05:33:51;873.92;;;799.67;;
33254;SDS011;19623;52.482;9.762;2022-08-05T05:36:16;876.33;;;799.03;;
33254;SDS011;19623;52.482;9.762;2022-08-05T05:38:42;881.97;;;801.78;;
33254;SDS011;19623;52.482;9.762;2022-08-05T05:41:08;871.83;;;795.55;;
33254;SDS011;19623;52.482;9.762;2022-08-05T05:43:33;888.05;;;808.13;;
33254;SDS011;19623;52.482;9.762;2022-08-05T05:45:59;886.90;;;805.88;;
33254;SDS011;19623;52.482;9.762;2022-08-05T05:48:24;891.38;;;810.25;;
33254;SDS011;19623;52.482;9.762;2022-08-05T05:50:50;892.63;;;809.60;;
33254;SDS011;19623;52.482;9.762;2022-08-05T05:53:16;894.20;;;809.00;;
33254;SDS011;19623;52.482;9.762;2022-08-05T05:55:42;877.25;;;787.78;;
33254;SDS011;19623;52.482;9.762;2022-08-05T05:58:07;873.55;;;784.30;;
33254;SDS011;19623;52.482;9.762;2022-08-05T06:00:33;870.13;;;782.55;;
33254;SDS011;19623;52.482;9.762;2022-08-05T06:02:59;863.63;;;775.80;;
33254;SDS011;19623;52.482;9.762;2022-08-05T06:05:27;860.53;;;773.05;;
33254;SDS011;19623;52.482;9.762;2022-08-05T06:07:52;866.55;;;773.90;;
33254;SDS011;19623;52.482;9.762;2022-08-05T06:10:18;858.35;;;768.78;;
33254;SDS011;19623;52.482;9.762;2022-08-05T06:12:44;861.47;;;767.50;;
33254;SDS011;19623;52.482;9.762;2022-08-05T06:15:09;873.50;;;779.20;;
33254;SDS011;19623;52.482;9.762;2022-08-05T06:17:35;872.35;;;776.28;;
33254;SDS011;19623;52.482;9.762;2022-08-05T06:20:02;868.00;;;775.05;;
33254;SDS011;19623;52.482;9.762;2022-08-05T06:22:29;876.70;;;782.38;;
33254;SDS011;19623;52.482;9.762;2022-08-05T06:24:56;871.45;;;780.83;;
33254;SDS011;19623;52.482;9.762;2022-08-05T06:27:22;870.10;;;775.97;;
33254;SDS011;19623;52.482;9.762;2022-08-05T06:29:48;865.92;;;771.60;;
33254;SDS011;19623;52.482;9.762;2022-08-05T06:32:13;863.33;;;770.22;;
33254;SDS011;19623;52.482;9.762;2022-08-05T06:34:39;872.00;;;778.65;;
33254;SDS011;19623;52.482;9.762;2022-08-05T06:37:05;873.20;;;780.63;;
33254;SDS011;19623;52.482;9.762;2022-08-05T06:39:31;860.75;;;766.55;;
33254;SDS011;19623;52.482;9.762;2022-08-05T06:41:57;849.88;;;755.35;;
33254;SDS011;19623;52.482;9.762;2022-08-05T06:44:27;869.58;;;745.67;;
33254;SDS011;19623;52.482;9.762;2022-08-05T06:46:54;865.17;;;742.72;;
33254;SDS011;19623;52.482;9.762;2022-08-05T06:49:20;848.45;;;739.38;;
33254;SDS011;19623;52.482;9.762;2022-08-05T06:51:46;867.47;;;744.47;;
33254;SDS011;19623;52.482;9.762;2022-08-05T06:54:12;857.45;;;723.17;;
33254;SDS011;19623;52.482;9.762;2022-08-05T06:56:37;862.65;;;711.47;;
33254;SDS011;19623;52.482;9.762;2022-08-05T06:59:03;861.00;;;713.88;;
33254;SDS011;19623;52.482;9.762;2022-08-05T07:01:30;854.67;;;717.28;;
33254;SDS011;19623;52.482;9.762;2022-08-05T07:03:55;850.03;;;716.95;;
33254;SDS011;19623;52.482;9.762;2022-08-05T07:06:21;842.75;;;714.53;;
33254;SDS011;19623;52.482;9.762;2022-08-05T07:08:47;853.70;;;714.72;;
33254;SDS011;19623;52.482;9.762;2022-08-05T07:11:13;847.15;;;712.63;;
33254;SDS011;19623;52.482;9.762;2022-08-05T07:13:39;841.42;;;717.45;;
33254;SDS011;19623;52.482;9.762;2022-08-05T07:16:23;849.80;;;705.75;;
33254;SDS011;19623;52.482;9.762;2022-08-05T07:19:19;854.25;;;700.90;;
33254;SDS011;19623;52.482;9.762;2022-08-05T07:21:46;855.05;;;703.72;;
33254;SDS011;19623;52.482;9.762;2022-08-05T07:24:13;851.15;;;718.03;;
33254;SDS011;19623;52.482;9.762;2022-08-05T07:26:39;857.75;;;721.08;;
33254;SDS011;19623;52.482;9.762;2022-08-05T07:29:06;860.10;;;706.90;;
33254;SDS011;19623;52.482;9.762;2022-08-05T07:31:32;841.30;;;716.40;;
33254;SDS011;19623;52.482;9.762;2022-08-05T07:33:58;814.78;;;732.35;;
33254;SDS011;19623;52.482;9.762;2022-08-05T07:36:23;824.72;;;735.35;;
33254;SDS011;19623;52.482;9.762;2022-08-05T07:38:49;838.55;;;750.10;;
33254;SDS011;19623;52.482;9.762;2022-08-05T07:41:16;867.50;;;733.25;;
33254;SDS011;19623;52.482;9.762;2022-08-05T07:43:44;821.75;;;733.08;;
33254;SDS011;19623;52.482;9.762;2022-08-05T07:46:09;833.03;;;749.63;;
33254;SDS011;19623;52.482;9.762;2022-08-05T07:48:35;832.88;;;743.33;;
33254;SDS011;19623;52.482;9.762;2022-08-05T07:51:01;846.78;;;755.78;;
33254;SDS011;19623;52.482;9.762;2022-08-05T07:53:27;851.55;;;769.85;;
33254;SDS011;19623;52.482;9.762;2022-08-05T07:55:53;855.05;;;773.88;;
33254;SDS011;19623;52.482;9.762;2022-08-05T07:58:18;856.75;;;754.72;;
33254;SDS011;19623;52.482;9.762;2022-08-05T08:00:44;863.60;;;769.95;;
33254;SDS011;19623;52.482;9.762;2022-08-05T08:03:10;869.53;;;756.35;;
33254;SDS011;19623;52.482;9.762;2022-08-05T08:05:37;878.08;;;757.42;;
33254;SDS011;19623;52.482;9.762;2022-08-05T08:08:03;869.35;;;753.95;;
33254;SDS011;19623;52.482;9.762;2022-08-05T08:10:28;874.95;;;746.35;;
33254;SDS011;19623;52.482;9.762;2022-08-05T08:12:54;871.25;;;745.78;;
33254;SDS011;19623;52.482;9.762;2022-08-05T08:15:20;878.70;;;743.00;;
33254;SDS011;19623;52.482;9.762;2022-08-05T08:17:46;878.72;;;734.13;;
33254;SDS011;19623;52.482;9.762;2022-08-05T08:20:11;814.10;;;731.58;;
33254;SDS011;19623;52.482;9.762;2022-08-05T08:22:37;868.30;;;730.30;;
33254;SDS011;19623;52.482;9.762;2022-08-05T08:25:04;798.03;;;722.40;;
33254;SDS011;19623;52.482;9.762;2022-08-05T08:27:30;802.92;;;718.58;;
33254;SDS011;19623;52.482;9.762;2022-08-05T08:29:56;854.00;;;719.30;;
33254;SDS011;19623;52.482;9.762;2022-08-05T08:32:22;875.83;;;731.35;;
33254;SDS011;19623;52.482;9.762;2022-08-05T08:34:48;875.70;;;745.72;;
33254;SDS011;19623;52.482;9.762;2022-08-05T08:37:14;882.58;;;753.80;;
33254;SDS011;19623;52.482;9.762;2022-08-05T08:39:41;853.00;;;768.05;;
33254;SDS011;19623;52.482;9.762;2022-08-05T08:42:07;893.53;;;782.75;;
33254;SDS011;19623;52.482;9.762;2022-08-05T08:44:33;896.42;;;802.42;;
33254;SDS011;19623;52.482;9.762;2022-08-05T08:47:04;918.30;;;819.67;;
33254;SDS011;19623;52.482;9.762;2022-08-05T08:49:33;902.17;;;821.92;;
33254;SDS011;19623;52.482;9.762;2022-08-05T08:52:04;921.45;;;822.05;;
33254;SDS011;19623;52.482;9.762;2022-08-05T08:54:35;928.50;;;828.10;;
33254;SDS011;19623;52.482;9.762;2022-08-05T08:57:01;925.40;;;824.80;;
33254;SDS011;19623;52.482;9.762;2022-08-05T08:59:28;923.63;;;824.00;;
33254;SDS011;19623;52.482;9.762;2022-08-05T09:01:54;927.85;;;832.30;;
33254;SDS011;19623;52.482;9.762;2022-08-05T09:04:20;938.45;;;843.65;;
33254;SDS011;19623;52.482;9.762;2022-08-05T09:06:46;929.50;;;835.97;;
33254;SDS011;19623;52.482;9.762;2022-08-05T09:09:12;939.55;;;844.25;;
33254;SDS011;19623;52.482;9.762;2022-08-05T09:11:37;937.58;;;841.63;;
33254;SDS011;19623;52.482;9.762;2022-08-05T09:14:03;931.25;;;837.83;;
33254;SDS011;19623;52.482;9.762;2022-08-05T09:16:29;919.78;;;822.75;;
33254;SDS011;19623;52.482;9.762;2022-08-05T09:18:55;917.70;;;820.20;;
33254;SDS011;19623;52.482;9.762;2022-08-05T09:21:21;912.40;;;816.38;;
33254;SDS011;19623;52.482;9.762;2022-08-05T09:23:50;899.25;;;801.95;;
33254;SDS011;19623;52.482;9.762;2022-08-05T09:26:29;890.00;;;793.00;;
33254;SDS011;19623;52.482;9.762;2022-08-05T09:28:59;893.45;;;795.92;;
33254;SDS011;19623;52.482;9.762;2022-08-05T09:31:29;893.05;;;797.78;;
33254;SDS011;19623;52.482;9.762;2022-08-05T09:33:57;885.75;;;794.20;;
33254;SDS011;19623;52.482;9.762;2022-08-05T09:36:23;884.85;;;794.45;;
33254;SDS011;19623;52.482;9.762;2022-08-05T09:39:03;887.17;;;797.05;;
33254;SDS011;19623;52.482;9.762;2022-08-05T09:41:33;889.08;;;800.00;;
33254;SDS011;19623;52.482;9.762;2022-08-05T09:43:59;879.15;;;790.00;;
33254;SDS011;19623;52.482;9.762;2022-08-05T09:46:26;877.38;;;785.78;;
33254;SDS011;19623;52.482;9.762;2022-08-05T09:48:58;884.55;;;793.22;;
33254;SDS011;19623;52.482;9.762;2022-08-05T09:51:34;884.80;;;791.65;;
33254;SDS011;19623;52.482;9.762;2022-08-05T09:54:02;886.45;;;790.88;;
33254;SDS011;19623;52.482;9.762;2022-08-05T09:56:33;854.67;;;738.60;;
33254;SDS011;19623;52.482;9.762;2022-08-05T09:59:00;869.47;;;762.53;;
33254;SDS011;19623;52.482;9.762;2022-08-05T10:01:29;854.60;;;741.70;;
33254;SDS011;19623;52.482;9.762;2022-08-05T10:04:06;830.03;;;743.22;;
33254;SDS011;19623;52.482;9.762;2022-08-05T10:06:36;790.53;;;685.78;;
33254;SDS011;19623;52.482;9.762;2022-08-05T10:11:39;784.78;;;668.63;;
33254;SDS011;19623;52.482;9.762;2022-08-05T10:16:51;748.95;;;679.25;;
33254;SDS011;19623;52.482;9.762;2022-08-05T10:19:20;431.77;;;403.58;;
33254;SDS011;19623;52.482;9.762;2022-08-05T10:21:47;63.15;;;59.25;;
33254;SDS011;19623;52.482;9.762;2022-08-05T10:24:14;737.90;;;658.08;;
33254;SDS011;19623;52.482;9.762;2022-08-05T10:26:42;767.83;;;576.80;;
33254;SDS011;19623;52.482;9.762;2022-08-05T10:29:09;736.03;;;570.40;;
33254;SDS011;19623;52.482;9.762;2022-08-05T10:31:35;307.38;;;285.30;;
33254;SDS011;19623;52.482;9.762;2022-08-05T10:34:08;794.80;;;644.70;;
33254;SDS011;19623;52.482;9.762;2022-08-05T10:36:34;786.13;;;667.85;;
33254;SDS011;19623;52.482;9.762;2022-08-05T10:39:09;751.75;;;674.85;;
33254;SDS011;19623;52.482;9.762;2022-08-05T10:41:49;682.45;;;619.00;;
33254;SDS011;19623;52.482;9.762;2022-08-05T10:44:21;739.80;;;649.03;;
33254;SDS011;19623;52.482;9.762;2022-08-05T10:46:49;719.90;;;640.63;;
33254;SDS011;19623;52.482;9.762;2022-08-05T10:49:17;695.50;;;621.35;;
33254;SDS011;19623;52.482;9.762;2022-08-05T10:51:44;718.10;;;640.53;;
33254;SDS011;19623;52.482;9.762;2022-08-05T10:54:12;709.38;;;621.25;;
33254;SDS011;19623;52.482;9.762;2022-08-05T10:56:48;760.50;;;600.33;;
33254;SDS011;19623;52.482;9.762;2022-08-05T10:59:24;703.83;;;594.20;;
33254;SDS011;19623;52.482;9.762;2022-08-05T11:02:07;800.05;;;607.83;;
33254;SDS011;19623;52.482;9.762;2022-08-05T11:04:42;704.75;;;623.60;;
33254;SDS011;19623;52.482;9.762;2022-08-05T11:07:12;718.70;;;644.83;;
33254;SDS011;19623;52.482;9.762;2022-08-05T11:09:42;685.63;;;622.07;;
33254;SDS011;19623;52.482;9.762;2022-08-05T11:15:15;706.28;;;636.63;;
33254;SDS011;19623;52.482;9.762;2022-08-05T11:17:43;725.00;;;655.65;;
33254;SDS011;19623;52.482;9.762;2022-08-05T11:22:58;727.17;;;657.65;;
33254;SDS011;19623;52.482;9.762;2022-08-05T11:35:56;807.92;;;650.50;;
33254;SDS011;19623;52.482;9.762;2022-08-05T11:41:10;792.03;;;684.97;;
33254;SDS011;19623;52.482;9.762;2022-08-05T11:43:57;807.85;;;680.40;;
33254;SDS011;19623;52.482;9.762;2022-08-05T11:49:20;771.97;;;691.80;;
33254;SDS011;19623;52.482;9.762;2022-08-05T11:51:48;809.50;;;724.45;;
33254;SDS011;19623;52.482;9.762;2022-08-05T11:54:26;828.67;;;744.20;;
33254;SDS011;19623;52.482;9.762;2022-08-05T11:56:54;820.40;;;734.35;;
33254;SDS011;19623;52.482;9.762;2022-08-05T11:59:25;634.30;;;583.88;;
33254;SDS011;19623;52.482;9.762;2022-08-05T12:04:22;655.22;;;601.55;;
33254;SDS011;19623;52.482;9.762;2022-08-05T12:06:49;808.95;;;730.85;;
33254;SDS011;19623;52.482;9.762;2022-08-05T12:09:24;799.53;;;713.08;;
33254;SDS011;19623;52.482;9.762;2022-08-05T12:11:53;778.75;;;696.65;;
33254;SDS011;19623;52.482;9.762;2022-08-05T12:14:20;779.60;;;707.10;;
33254;SDS011;19623;52.482;9.762;2022-08-05T12:16:45;720.83;;;654.60;;
33254;SDS011;19623;52.482;9.762;2022-08-05T12:19:12;766.40;;;694.42;;
33254;SDS011;19623;52.482;9.762;2022-08-05T12:21:43;538.28;;;495.23;;
33254;SDS011;19623;52.482;9.762;2022-08-05T12:24:11;685.97;;;626.50;;
33254;SDS011;19623;52.482;9.762;2022-08-05T12:26:43;703.63;;;639.10;;
33254;SDS011;19623;52.482;9.762;2022-08-05T12:31:45;557.42;;;516.75;;
33254;SDS011;19623;52.482;9.762;2022-08-05T12:34:15;535.85;;;497.83;;
33254;SDS011;19623;52.482;9.762;2022-08-05T12:36:42;651.42;;;599.20;;
33254;SDS011;19623;52.482;9.762;2022-08-05T12:39:09;697.55;;;636.90;;
33254;SDS011;19623;52.482;9.762;2022-08-05T12:41:36;562.53;;;512.60;;
33254;SDS011;19623;52.482;9.762;2022-08-05T12:44:03;679.22;;;620.05;;
33254;SDS011;19623;52.482;9.762;2022-08-05T12:46:32;312.75;;;289.38;;
33254;SDS011;19623;52.482;9.762;2022-08-05T12:49:09;572.05;;;527.60;;
33254;SDS011;19623;52.482;9.762;2022-08-05T12:51:44;670.38;;;614.53;;
33254;SDS011;19623;52.482;9.762;2022-08-05T12:54:27;738.83;;;675.50;;
33254;SDS011;19623;52.482;9.762;2022-08-05T12:56:58;738.70;;;677.15;;
33254;SDS011;19623;52.482;9.762;2022-08-05T12:59:26;471.70;;;434.70;;
33254;SDS011;19623;52.482;9.762;2022-08-05T13:01:59;259.85;;;239.45;;
33254;SDS011;19623;52.482;9.762;2022-08-05T13:04:37;616.72;;;566.22;;
33254;SDS011;19623;52.482;9.762;2022-08-05T13:07:04;600.15;;;551.40;;
33254;SDS011;19623;52.482;9.762;2022-08-05T13:09:36;555.75;;;511.23;;
33254;SDS011;19623;52.482;9.762;2022-08-05T13:12:07;416.15;;;383.55;;
33254;SDS011;19623;52.482;9.762;2022-08-05T13:14:40;428.00;;;394.73;;
33254;SDS011;19623;52.482;9.762;2022-08-05T13:17:08;255.15;;;236.48;;
33254;SDS011;19623;52.482;9.762;2022-08-05T13:22:25;251.10;;;231.52;;
33254;SDS011;19623;52.482;9.762;2022-08-05T13:24:51;624.92;;;572.83;;
33254;SDS011;19623;52.482;9.762;2022-08-05T13:27:27;328.75;;;303.30;;
33254;SDS011;19623;52.482;9.762;2022-08-05T13:30:03;531.33;;;490.80;;
33254;SDS011;19623;52.482;9.762;2022-08-05T13:32:31;246.07;;;228.27;;
33254;SDS011;19623;52.482;9.762;2022-08-05T13:34:56;210.25;;;193.77;;
33254;SDS011;19623;52.482;9.762;2022-08-05T13:37:22;336.38;;;311.77;;
33254;SDS011;19623;52.482;9.762;2022-08-05T13:39:49;457.20;;;421.27;;
33254;SDS011;19623;52.482;9.762;2022-08-05T13:42:17;370.33;;;342.83;;
33254;SDS011;19623;52.482;9.762;2022-08-05T13:44:44;396.33;;;364.95;;
33254;SDS011;19623;52.482;9.762;2022-08-05T13:47:10;333.15;;;308.63;;
33254;SDS011;19623;52.482;9.762;2022-08-05T13:49:37;441.52;;;409.08;;
33254;SDS011;19623;52.482;9.762;2022-08-05T13:52:09;276.67;;;255.98;;
33254;SDS011;19623;52.482;9.762;2022-08-05T13:54:56;441.42;;;406.65;;
33254;SDS011;19623;52.482;9.762;2022-08-05T13:57:22;423.45;;;389.67;;
33254;SDS011;19623;52.482;9.762;2022-08-05T13:59:48;642.67;;;590.95;;
33254;SDS011;19623;52.482;9.762;2022-08-05T14:02:14;620.25;;;569.67;;
33254;SDS011;19623;52.482;9.762;2022-08-05T14:04:43;583.10;;;536.47;;
33254;SDS011;19623;52.482;9.762;2022-08-05T14:09:58;667.28;;;613.45;;
33254;SDS011;19623;52.482;9.762;2022-08-05T14:12:24;609.78;;;561.00;;
33254;SDS011;19623;52.482;9.762;2022-08-05T14:14:51;617.00;;;567.22;;
33254;SDS011;19623;52.482;9.762;2022-08-05T14:17:17;621.05;;;571.35;;
33254;SDS011;19623;52.482;9.762;2022-08-05T14:19:42;538.65;;;497.80;;
33254;SDS011;19623;52.482;9.762;2022-08-05T14:22:09;585.60;;;539.47;;
33254;SDS011;19623;52.482;9.762;2022-08-05T14:24:35;677.83;;;624.33;;
33254;SDS011;19623;52.482;9.762;2022-08-05T14:27:02;639.13;;;587.30;;
33254;SDS011;19623;52.482;9.762;2022-08-05T14:29:28;339.30;;;314.80;;
33254;SDS011;19623;52.482;9.762;2022-08-05T14:31:53;799.67;;;729.35;;
33254;SDS011;19623;52.482;9.762;2022-08-05T14:34:19;571.83;;;523.38;;
33254;SDS011;19623;52.482;9.762;2022-08-05T14:36:45;218.82;;;203.10;;
33254;SDS011;19623;52.482;9.762;2022-08-05T14:39:10;487.30;;;451.83;;
33254;SDS011;19623;52.482;9.762;2022-08-05T14:41:36;692.30;;;637.72;;
33254;SDS011;19623;52.482;9.762;2022-08-05T14:44:02;645.45;;;594.55;;
33254;SDS011;19623;52.482;9.762;2022-08-05T14:46:28;657.17;;;604.90;;
33254;SDS011;19623;52.482;9.762;2022-08-05T14:48:56;694.88;;;638.70;;
33254;SDS011;19623;52.482;9.762;2022-08-05T14:51:23;625.20;;;575.80;;
33254;SDS011;19623;52.482;9.762;2022-08-05T14:53:48;674.92;;;620.45;;
33254;SDS011;19623;52.482;9.762;2022-08-05T14:56:14;684.80;;;630.05;;
33254;SDS011;19623;52.482;9.762;2022-08-05T14:58:40;709.90;;;653.50;;